sensor_id;sensor_type;location;lat;lon;timestamp;P1;durP1;ratioP1;P2;durP2;ratioP2
75191;SDS011;63771;52.580;9.734;2022-11-15T00:01:31;15.50;;;11.57;;
75191;SDS011;63771;52.580;9.734;2022-11-15T00:03:56;17.08;;;10.38;;
75191;SDS011;63771;52.580;9.734;2022-11-15T00:06:22;17.27;;;10.37;;
75191;SDS011;63771;52.580;9.734;2022-11-15T00:08:47;15.35;;;10.45;;
75191;SDS011;63771;52.580;9.734;2022-11-15T00:11:12;17.20;;;9.97;;
75191;SDS011;63771;52.580;9.734;2022-11-15T00:13:38;14.97;;;9.73;;
75191;SDS011;63771;52.580;9.734;2022-11-15T00:16:03;17.08;;;10.75;;
75191;SDS011;63771;52.580;9.734;2022-11-15T00:18:29;17.63;;;10.95;;
75191;SDS011;63771;52.580;9.734;2022-11-15T00:20:55;17.48;;;11.40;;
75191;SDS011;63771;52.580;9.734;2022-11-15T00:23:21;15.40;;;10.95;;
75191;SDS011;63771;52.580;9.734;2022-11-15T00:25:46;15.88;;;10.88;;
75191;SDS011;63771;52.580;9.734;2022-11-15T00:28:12;18.93;;;9.43;;
75191;SDS011;63771;52.580;9.734;2022-11-15T00:30:37;15.52;;;10.80;;
75191;SDS011;63771;52.580;9.734;2022-11-15T00:33:03;14.80;;;11.07;;
75191;SDS011;63771;52.580;9.734;2022-11-15T00:35:30;15.13;;;9.98;;
75191;SDS011;63771;52.580;9.734;2022-11-15T00:37:56;15.23;;;10.98;;
75191;SDS011;63771;52.580;9.734;2022-11-15T00:40:21;17.43;;;10.40;;
75191;SDS011;63771;52.580;9.734;2022-11-15T00:42:47;15.03;;;10.97;;
75191;SDS011;63771;52.580;9.734;2022-11-15T00:45:12;17.83;;;10.77;;
75191;SDS011;63771;52.580;9.734;2022-11-15T00:47:37;14.87;;;10.60;;
75191;SDS011;63771;52.580;9.734;2022-11-15T00:50:03;15.80;;;10.33;;
75191;SDS011;63771;52.580;9.734;2022-11-15T00:52:29;17.65;;;10.98;;
75191;SDS011;63771;52.580;9.734;2022-11-15T00:54:54;14.73;;;10.70;;
75191;SDS011;63771;52.580;9.734;2022-11-15T00:57:19;15.43;;;10.33;;
75191;SDS011;63771;52.580;9.734;2022-11-15T00:59:45;16.05;;;10.93;;
75191;SDS011;63771;52.580;9.734;2022-11-15T01:02:10;16.63;;;12.07;;
75191;SDS011;63771;52.580;9.734;2022-11-15T01:04:35;16.37;;;11.20;;
75191;SDS011;63771;52.580;9.734;2022-11-15T01:07:01;15.00;;;10.57;;
75191;SDS011;63771;52.580;9.734;2022-11-15T01:09:26;14.50;;;10.03;;
75191;SDS011;63771;52.580;9.734;2022-11-15T01:11:51;13.67;;;10.27;;
75191;SDS011;63771;52.580;9.734;2022-11-15T01:14:17;17.43;;;10.47;;
75191;SDS011;63771;52.580;9.734;2022-11-15T01:16:42;15.73;;;11.23;;
75191;SDS011;63771;52.580;9.734;2022-11-15T01:19:07;18.47;;;11.47;;
75191;SDS011;63771;52.580;9.734;2022-11-15T01:21:33;16.20;;;10.73;;
75191;SDS011;63771;52.580;9.734;2022-11-15T01:23:58;16.90;;;11.47;;
75191;SDS011;63771;52.580;9.734;2022-11-15T01:26:23;15.65;;;10.73;;
75191;SDS011;63771;52.580;9.734;2022-11-15T01:28:49;17.10;;;10.27;;
75191;SDS011;63771;52.580;9.734;2022-11-15T01:31:17;13.13;;;9.25;;
75191;SDS011;63771;52.580;9.734;2022-11-15T01:33:43;13.68;;;9.02;;
75191;SDS011;63771;52.580;9.734;2022-11-15T01:36:13;15.00;;;9.70;;
75191;SDS011;63771;52.580;9.734;2022-11-15T01:38:40;12.15;;;9.05;;
75191;SDS011;63771;52.580;9.734;2022-11-15T01:41:05;14.10;;;9.93;;
75191;SDS011;63771;52.580;9.734;2022-11-15T01:43:32;15.43;;;10.30;;
75191;SDS011;63771;52.580;9.734;2022-11-15T01:46:02;17.38;;;10.73;;
75191;SDS011;63771;52.580;9.734;2022-11-15T01:48:32;18.40;;;11.25;;
75191;SDS011;63771;52.580;9.734;2022-11-15T01:50:59;14.05;;;10.02;;
75191;SDS011;63771;52.580;9.734;2022-11-15T01:53:27;15.50;;;9.18;;
75191;SDS011;63771;52.580;9.734;2022-11-15T01:58:21;12.93;;;8.70;;
75191;SDS011;63771;52.580;9.734;2022-11-15T02:00:47;13.02;;;9.73;;
75191;SDS011;63771;52.580;9.734;2022-11-15T02:03:14;11.60;;;8.70;;
75191;SDS011;63771;52.580;9.734;2022-11-15T02:05:40;11.93;;;9.57;;
75191;SDS011;63771;52.580;9.734;2022-11-15T02:08:06;13.40;;;9.60;;
75191;SDS011;63771;52.580;9.734;2022-11-15T02:10:31;10.98;;;8.82;;
75191;SDS011;63771;52.580;9.734;2022-11-15T02:12:57;14.60;;;8.33;;
75191;SDS011;63771;52.580;9.734;2022-11-15T02:15:27;11.57;;;8.65;;
75191;SDS011;63771;52.580;9.734;2022-11-15T02:18:39;12.93;;;9.27;;
75191;SDS011;63771;52.580;9.734;2022-11-15T02:31:53;12.93;;;8.45;;
75191;SDS011;63771;52.580;9.734;2022-11-15T02:34:54;11.60;;;8.77;;
75191;SDS011;63771;52.580;9.734;2022-11-15T02:40:14;12.18;;;8.50;;
75191;SDS011;63771;52.580;9.734;2022-11-15T02:42:46;12.45;;;7.85;;
75191;SDS011;63771;52.580;9.734;2022-11-15T02:45:39;14.40;;;8.77;;
75191;SDS011;63771;52.580;9.734;2022-11-15T02:48:13;10.25;;;7.47;;
75191;SDS011;63771;52.580;9.734;2022-11-15T02:50:42;11.45;;;8.73;;
75191;SDS011;63771;52.580;9.734;2022-11-15T02:53:08;10.70;;;8.68;;
75191;SDS011;63771;52.580;9.734;2022-11-15T02:55:35;10.43;;;7.13;;
75191;SDS011;63771;52.580;9.734;2022-11-15T02:58:15;11.90;;;7.85;;
75191;SDS011;63771;52.580;9.734;2022-11-15T03:01:07;12.32;;;7.13;;
75191;SDS011;63771;52.580;9.734;2022-11-15T03:11:44;11.55;;;8.27;;
75191;SDS011;63771;52.580;9.734;2022-11-15T03:14:23;12.60;;;7.80;;
75191;SDS011;63771;52.580;9.734;2022-11-15T03:17:07;12.07;;;8.07;;
75191;SDS011;63771;52.580;9.734;2022-11-15T03:19:48;11.73;;;8.07;;
75191;SDS011;63771;52.580;9.734;2022-11-15T03:22:18;13.50;;;8.90;;
75191;SDS011;63771;52.580;9.734;2022-11-15T03:24:53;13.30;;;8.63;;
75191;SDS011;63771;52.580;9.734;2022-11-15T03:27:21;8.93;;;7.60;;
75191;SDS011;63771;52.580;9.734;2022-11-15T03:29:50;11.57;;;8.95;;
75191;SDS011;63771;52.580;9.734;2022-11-15T03:32:25;10.80;;;8.48;;
75191;SDS011;63771;52.580;9.734;2022-11-15T03:37:41;13.38;;;7.70;;
75191;SDS011;63771;52.580;9.734;2022-11-15T03:40:14;10.98;;;7.30;;
75191;SDS011;63771;52.580;9.734;2022-11-15T03:45:14;8.95;;;8.00;;
75191;SDS011;63771;52.580;9.734;2022-11-15T03:48:29;11.55;;;8.60;;
75191;SDS011;63771;52.580;9.734;2022-11-15T03:50:49;11.73;;;7.70;;
75191;SDS011;63771;52.580;9.734;2022-11-15T03:53:16;11.35;;;8.18;;
75191;SDS011;63771;52.580;9.734;2022-11-15T03:55:41;12.02;;;8.73;;
75191;SDS011;63771;52.580;9.734;2022-11-15T03:58:07;13.23;;;7.97;;
75191;SDS011;63771;52.580;9.734;2022-11-15T04:00:32;10.85;;;8.45;;
75191;SDS011;63771;52.580;9.734;2022-11-15T04:02:59;11.55;;;8.32;;
75191;SDS011;63771;52.580;9.734;2022-11-15T04:05:24;12.48;;;8.77;;
75191;SDS011;63771;52.580;9.734;2022-11-15T04:07:49;9.88;;;8.35;;
75191;SDS011;63771;52.580;9.734;2022-11-15T04:10:15;12.20;;;8.77;;
75191;SDS011;63771;52.580;9.734;2022-11-15T04:12:43;10.00;;;7.78;;
75191;SDS011;63771;52.580;9.734;2022-11-15T04:15:15;10.55;;;7.30;;
75191;SDS011;63771;52.580;9.734;2022-11-15T04:17:46;12.80;;;8.15;;
75191;SDS011;63771;52.580;9.734;2022-11-15T04:22:56;9.20;;;7.65;;
75191;SDS011;63771;52.580;9.734;2022-11-15T04:25:41;8.38;;;6.90;;
75191;SDS011;63771;52.580;9.734;2022-11-15T04:28:08;9.80;;;7.50;;
75191;SDS011;63771;52.580;9.734;2022-11-15T04:30:33;8.85;;;6.75;;
75191;SDS011;63771;52.580;9.734;2022-11-15T04:32:59;10.25;;;7.07;;
75191;SDS011;63771;52.580;9.734;2022-11-15T04:35:24;11.57;;;8.07;;
75191;SDS011;63771;52.580;9.734;2022-11-15T04:37:49;11.48;;;7.07;;
75191;SDS011;63771;52.580;9.734;2022-11-15T04:40:15;11.77;;;7.03;;
75191;SDS011;63771;52.580;9.734;2022-11-15T04:42:41;9.43;;;7.17;;
75191;SDS011;63771;52.580;9.734;2022-11-15T04:45:07;9.27;;;6.70;;
75191;SDS011;63771;52.580;9.734;2022-11-15T04:47:33;13.85;;;7.97;;
75191;SDS011;63771;52.580;9.734;2022-11-15T04:49:59;11.27;;;6.68;;
75191;SDS011;63771;52.580;9.734;2022-11-15T04:52:24;10.07;;;6.90;;
75191;SDS011;63771;52.580;9.734;2022-11-15T04:54:49;10.17;;;7.67;;
75191;SDS011;63771;52.580;9.734;2022-11-15T04:57:15;8.00;;;7.13;;
75191;SDS011;63771;52.580;9.734;2022-11-15T04:59:40;12.07;;;8.03;;
75191;SDS011;63771;52.580;9.734;2022-11-15T05:02:05;14.77;;;8.30;;
75191;SDS011;63771;52.580;9.734;2022-11-15T05:04:31;10.97;;;8.10;;
75191;SDS011;63771;52.580;9.734;2022-11-15T05:06:56;8.63;;;7.13;;
75191;SDS011;63771;52.580;9.734;2022-11-15T05:09:21;9.43;;;7.13;;
75191;SDS011;63771;52.580;9.734;2022-11-15T05:11:47;11.93;;;7.70;;
75191;SDS011;63771;52.580;9.734;2022-11-15T05:14:13;9.25;;;7.15;;
75191;SDS011;63771;52.580;9.734;2022-11-15T05:16:38;9.07;;;7.55;;
75191;SDS011;63771;52.580;9.734;2022-11-15T05:19:05;10.80;;;7.50;;
75191;SDS011;63771;52.580;9.734;2022-11-15T05:21:30;10.90;;;7.80;;
75191;SDS011;63771;52.580;9.734;2022-11-15T05:23:56;9.75;;;8.70;;
75191;SDS011;63771;52.580;9.734;2022-11-15T05:26:22;11.15;;;7.88;;
75191;SDS011;63771;52.580;9.734;2022-11-15T05:28:51;9.70;;;7.22;;
75191;SDS011;63771;52.580;9.734;2022-11-15T05:31:19;11.73;;;7.95;;
75191;SDS011;63771;52.580;9.734;2022-11-15T05:33:44;9.60;;;7.95;;
75191;SDS011;63771;52.580;9.734;2022-11-15T05:36:20;10.63;;;8.18;;
75191;SDS011;63771;52.580;9.734;2022-11-15T05:38:52;19.13;;;13.02;;
75191;SDS011;63771;52.580;9.734;2022-11-15T05:41:18;14.65;;;10.38;;
75191;SDS011;63771;52.580;9.734;2022-11-15T05:43:47;12.35;;;9.43;;
75191;SDS011;63771;52.580;9.734;2022-11-15T05:46:14;11.30;;;9.27;;
75191;SDS011;63771;52.580;9.734;2022-11-15T05:48:40;11.02;;;8.45;;
75191;SDS011;63771;52.580;9.734;2022-11-15T05:51:10;11.27;;;8.15;;
75191;SDS011;63771;52.580;9.734;2022-11-15T05:53:38;12.63;;;8.95;;
75191;SDS011;63771;52.580;9.734;2022-11-15T05:56:03;12.23;;;8.55;;
75191;SDS011;63771;52.580;9.734;2022-11-15T05:58:31;13.93;;;9.35;;
75191;SDS011;63771;52.580;9.734;2022-11-15T06:00:57;12.63;;;9.35;;
75191;SDS011;63771;52.580;9.734;2022-11-15T06:03:23;11.15;;;8.23;;
75191;SDS011;63771;52.580;9.734;2022-11-15T06:05:49;11.13;;;9.13;;
75191;SDS011;63771;52.580;9.734;2022-11-15T06:08:14;14.38;;;9.20;;
75191;SDS011;63771;52.580;9.734;2022-11-15T06:10:40;8.77;;;7.17;;
75191;SDS011;63771;52.580;9.734;2022-11-15T06:13:05;10.15;;;7.82;;
75191;SDS011;63771;52.580;9.734;2022-11-15T06:15:31;10.13;;;8.00;;
75191;SDS011;63771;52.580;9.734;2022-11-15T06:17:58;9.13;;;7.85;;
75191;SDS011;63771;52.580;9.734;2022-11-15T06:20:27;8.43;;;7.53;;
75191;SDS011;63771;52.580;9.734;2022-11-15T06:22:57;13.40;;;8.32;;
75191;SDS011;63771;52.580;9.734;2022-11-15T06:25:24;11.65;;;7.88;;
75191;SDS011;63771;52.580;9.734;2022-11-15T06:27:53;10.63;;;7.85;;
75191;SDS011;63771;52.580;9.734;2022-11-15T06:30:22;10.25;;;8.15;;
75191;SDS011;63771;52.580;9.734;2022-11-15T06:32:49;11.98;;;7.70;;
75191;SDS011;63771;52.580;9.734;2022-11-15T06:35:14;9.75;;;7.65;;
75191;SDS011;63771;52.580;9.734;2022-11-15T06:37:40;11.13;;;7.30;;
75191;SDS011;63771;52.580;9.734;2022-11-15T06:40:06;8.13;;;6.82;;
75191;SDS011;63771;52.580;9.734;2022-11-15T06:42:33;9.65;;;7.53;;
75191;SDS011;63771;52.580;9.734;2022-11-15T06:44:58;7.90;;;7.10;;
75191;SDS011;63771;52.580;9.734;2022-11-15T06:47:24;9.82;;;7.55;;
75191;SDS011;63771;52.580;9.734;2022-11-15T06:49:49;12.37;;;8.00;;
75191;SDS011;63771;52.580;9.734;2022-11-15T06:52:14;10.27;;;8.37;;
75191;SDS011;63771;52.580;9.734;2022-11-15T06:54:40;10.80;;;8.27;;
75191;SDS011;63771;52.580;9.734;2022-11-15T06:57:05;9.80;;;8.60;;
75191;SDS011;63771;52.580;9.734;2022-11-15T06:59:30;10.33;;;8.60;;
75191;SDS011;63771;52.580;9.734;2022-11-15T07:01:56;10.03;;;8.27;;
75191;SDS011;63771;52.580;9.734;2022-11-15T07:04:21;10.83;;;7.73;;
75191;SDS011;63771;52.580;9.734;2022-11-15T07:06:47;10.03;;;8.23;;
75191;SDS011;63771;52.580;9.734;2022-11-15T07:09:13;9.32;;;7.40;;
75191;SDS011;63771;52.580;9.734;2022-11-15T07:11:38;10.55;;;7.18;;
75191;SDS011;63771;52.580;9.734;2022-11-15T07:14:04;8.53;;;7.07;;
75191;SDS011;63771;52.580;9.734;2022-11-15T07:16:29;7.50;;;6.80;;
75191;SDS011;63771;52.580;9.734;2022-11-15T07:18:54;9.80;;;6.70;;
75191;SDS011;63771;52.580;9.734;2022-11-15T07:21:20;8.13;;;6.93;;
75191;SDS011;63771;52.580;9.734;2022-11-15T07:23:45;10.50;;;6.97;;
75191;SDS011;63771;52.580;9.734;2022-11-15T07:26:11;8.37;;;6.43;;
75191;SDS011;63771;52.580;9.734;2022-11-15T07:28:36;7.33;;;6.47;;
75191;SDS011;63771;52.580;9.734;2022-11-15T07:31:05;7.57;;;6.23;;
75191;SDS011;63771;52.580;9.734;2022-11-15T07:33:31;8.30;;;5.72;;
75191;SDS011;63771;52.580;9.734;2022-11-15T07:36:00;8.10;;;6.80;;
75191;SDS011;63771;52.580;9.734;2022-11-15T07:38:27;8.30;;;7.30;;
75191;SDS011;63771;52.580;9.734;2022-11-15T07:40:57;10.77;;;7.38;;
75191;SDS011;63771;52.580;9.734;2022-11-15T07:43:24;11.18;;;6.63;;
75191;SDS011;63771;52.580;9.734;2022-11-15T07:45:49;8.07;;;6.22;;
75191;SDS011;63771;52.580;9.734;2022-11-15T07:48:15;7.70;;;6.53;;
75191;SDS011;63771;52.580;9.734;2022-11-15T07:50:40;7.53;;;5.47;;
75191;SDS011;63771;52.580;9.734;2022-11-15T07:53:07;7.95;;;5.65;;
75191;SDS011;63771;52.580;9.734;2022-11-15T07:55:33;7.50;;;6.68;;
75191;SDS011;63771;52.580;9.734;2022-11-15T07:58:06;6.60;;;5.93;;
75191;SDS011;63771;52.580;9.734;2022-11-15T08:00:35;8.15;;;5.85;;
75191;SDS011;63771;52.580;9.734;2022-11-15T08:03:02;9.40;;;5.40;;
75191;SDS011;63771;52.580;9.734;2022-11-15T08:05:32;5.88;;;4.97;;
75191;SDS011;63771;52.580;9.734;2022-11-15T08:07:58;7.38;;;5.40;;
75191;SDS011;63771;52.580;9.734;2022-11-15T08:10:23;9.03;;;6.43;;
75191;SDS011;63771;52.580;9.734;2022-11-15T08:12:59;7.25;;;5.85;;
75191;SDS011;63771;52.580;9.734;2022-11-15T08:15:26;7.43;;;5.05;;
75191;SDS011;63771;52.580;9.734;2022-11-15T08:17:56;6.03;;;4.70;;
75191;SDS011;63771;52.580;9.734;2022-11-15T08:20:25;6.47;;;4.93;;
75191;SDS011;63771;52.580;9.734;2022-11-15T08:22:55;11.52;;;5.50;;
75191;SDS011;63771;52.580;9.734;2022-11-15T08:25:21;10.50;;;6.28;;
75191;SDS011;63771;52.580;9.734;2022-11-15T08:27:46;8.30;;;6.27;;
75191;SDS011;63771;52.580;9.734;2022-11-15T08:30:12;8.70;;;7.80;;
75191;SDS011;63771;52.580;9.734;2022-11-15T08:32:38;9.52;;;7.07;;
75191;SDS011;63771;52.580;9.734;2022-11-15T08:35:04;9.88;;;6.93;;
75191;SDS011;63771;52.580;9.734;2022-11-15T08:37:29;6.85;;;6.15;;
75191;SDS011;63771;52.580;9.734;2022-11-15T08:39:55;8.00;;;5.27;;
75191;SDS011;63771;52.580;9.734;2022-11-15T08:42:20;6.80;;;5.50;;
75191;SDS011;63771;52.580;9.734;2022-11-15T08:44:45;7.13;;;5.77;;
75191;SDS011;63771;52.580;9.734;2022-11-15T08:47:11;7.43;;;6.27;;
75191;SDS011;63771;52.580;9.734;2022-11-15T08:49:38;6.10;;;4.85;;
75191;SDS011;63771;52.580;9.734;2022-11-15T08:52:03;5.50;;;4.97;;
75191;SDS011;63771;52.580;9.734;2022-11-15T08:54:29;9.23;;;5.37;;
75191;SDS011;63771;52.580;9.734;2022-11-15T08:56:54;7.53;;;4.70;;
75191;SDS011;63771;52.580;9.734;2022-11-15T08:59:19;9.57;;;6.10;;
75191;SDS011;63771;52.580;9.734;2022-11-15T09:01:45;6.00;;;4.97;;
75191;SDS011;63771;52.580;9.734;2022-11-15T09:04:10;7.18;;;5.43;;
75191;SDS011;63771;52.580;9.734;2022-11-15T09:06:35;10.90;;;5.50;;
75191;SDS011;63771;52.580;9.734;2022-11-15T09:09:01;6.43;;;4.70;;
75191;SDS011;63771;52.580;9.734;2022-11-15T09:11:27;9.02;;;5.72;;
75191;SDS011;63771;52.580;9.734;2022-11-15T09:13:53;9.75;;;5.50;;
75191;SDS011;63771;52.580;9.734;2022-11-15T09:16:18;11.25;;;6.53;;
75191;SDS011;63771;52.580;9.734;2022-11-15T09:18:43;6.53;;;5.90;;
75191;SDS011;63771;52.580;9.734;2022-11-15T09:21:09;7.57;;;5.07;;
75191;SDS011;63771;52.580;9.734;2022-11-15T09:23:35;8.02;;;5.32;;
75191;SDS011;63771;52.580;9.734;2022-11-15T09:26:01;9.10;;;4.70;;
75191;SDS011;63771;52.580;9.734;2022-11-15T09:28:28;6.45;;;5.18;;
75191;SDS011;63771;52.580;9.734;2022-11-15T09:30:57;9.07;;;5.63;;
75191;SDS011;63771;52.580;9.734;2022-11-15T09:33:24;7.28;;;4.35;;
75191;SDS011;63771;52.580;9.734;2022-11-15T09:35:49;4.88;;;4.28;;
75191;SDS011;63771;52.580;9.734;2022-11-15T09:38:15;4.83;;;4.43;;
75191;SDS011;63771;52.580;9.734;2022-11-15T09:40:40;5.50;;;3.87;;
75191;SDS011;63771;52.580;9.734;2022-11-15T09:43:20;4.55;;;4.13;;
75191;SDS011;63771;52.580;9.734;2022-11-15T09:48:48;7.38;;;4.40;;
75191;SDS011;63771;52.580;9.734;2022-11-15T09:51:35;9.32;;;6.32;;
75191;SDS011;63771;52.580;9.734;2022-11-15T09:54:15;6.15;;;4.53;;
75191;SDS011;63771;52.580;9.734;2022-11-15T09:56:45;5.22;;;4.43;;
75191;SDS011;63771;52.580;9.734;2022-11-15T10:04:50;5.28;;;4.30;;
75191;SDS011;63771;52.580;9.734;2022-11-15T10:10:20;6.57;;;4.00;;
75191;SDS011;63771;52.580;9.734;2022-11-15T10:12:52;4.15;;;3.75;;
75191;SDS011;63771;52.580;9.734;2022-11-15T10:15:18;6.80;;;3.97;;
75191;SDS011;63771;52.580;9.734;2022-11-15T10:20:59;5.07;;;3.92;;
75191;SDS011;63771;52.580;9.734;2022-11-15T10:23:34;7.85;;;4.95;;
75191;SDS011;63771;52.580;9.734;2022-11-15T10:26:00;7.87;;;5.03;;
75191;SDS011;63771;52.580;9.734;2022-11-15T10:28:40;6.15;;;3.88;;
75191;SDS011;63771;52.580;9.734;2022-11-15T10:31:14;6.10;;;4.68;;
75191;SDS011;63771;52.580;9.734;2022-11-15T10:33:51;4.95;;;4.30;;
75191;SDS011;63771;52.580;9.734;2022-11-15T10:36:23;6.93;;;4.72;;
75191;SDS011;63771;52.580;9.734;2022-11-15T10:46:31;4.38;;;3.78;;
75191;SDS011;63771;52.580;9.734;2022-11-15T10:52:04;3.65;;;3.30;;
75191;SDS011;63771;52.580;9.734;2022-11-15T10:54:48;3.67;;;3.25;;
75191;SDS011;63771;52.580;9.734;2022-11-15T10:57:38;5.03;;;2.95;;
75191;SDS011;63771;52.580;9.734;2022-11-15T11:02:58;3.25;;;3.05;;
75191;SDS011;63771;52.580;9.734;2022-11-15T11:05:30;4.45;;;4.05;;
75191;SDS011;63771;52.580;9.734;2022-11-15T11:08:02;3.50;;;3.20;;
75191;SDS011;63771;52.580;9.734;2022-11-15T11:10:28;3.33;;;3.03;;
75191;SDS011;63771;52.580;9.734;2022-11-15T11:12:54;3.17;;;2.92;;
75191;SDS011;63771;52.580;9.734;2022-11-15T11:15:19;5.57;;;3.17;;
75191;SDS011;63771;52.580;9.734;2022-11-15T11:20:40;3.67;;;3.38;;
75191;SDS011;63771;52.580;9.734;2022-11-15T11:25:58;4.57;;;3.13;;
75191;SDS011;63771;52.580;9.734;2022-11-15T11:31:20;5.63;;;3.83;;
75191;SDS011;63771;52.580;9.734;2022-11-15T11:39:17;4.07;;;3.25;;
75191;SDS011;63771;52.580;9.734;2022-11-15T11:44:37;3.63;;;3.03;;
75191;SDS011;63771;52.580;9.734;2022-11-15T11:47:37;3.08;;;2.88;;
75191;SDS011;63771;52.580;9.734;2022-11-15T11:50:15;4.70;;;3.10;;
75191;SDS011;63771;52.580;9.734;2022-11-15T11:55:44;4.40;;;2.88;;
75191;SDS011;63771;52.580;9.734;2022-11-15T12:00:49;3.20;;;2.97;;
75191;SDS011;63771;52.580;9.734;2022-11-15T12:03:37;6.18;;;3.97;;
75191;SDS011;63771;52.580;9.734;2022-11-15T12:15:09;3.17;;;2.97;;
75191;SDS011;63771;52.580;9.734;2022-11-15T12:17:39;3.67;;;3.38;;
75191;SDS011;63771;52.580;9.734;2022-11-15T12:20:14;25.27;;;10.65;;
75191;SDS011;63771;52.580;9.734;2022-11-15T12:22:56;10.63;;;5.15;;
75191;SDS011;63771;52.580;9.734;2022-11-15T12:25:45;3.15;;;2.47;;
75191;SDS011;63771;52.580;9.734;2022-11-15T12:33:50;2.95;;;2.75;;
75191;SDS011;63771;52.580;9.734;2022-11-15T12:41:22;2.83;;;2.63;;
75191;SDS011;63771;52.580;9.734;2022-11-15T12:43:49;2.72;;;2.53;;
75191;SDS011;63771;52.580;9.734;2022-11-15T12:47:02;2.55;;;2.42;;
75191;SDS011;63771;52.580;9.734;2022-11-15T12:49:09;5.65;;;4.38;;
75191;SDS011;63771;52.580;9.734;2022-11-15T13:02:35;10.75;;;5.30;;
75191;SDS011;63771;52.580;9.734;2022-11-15T13:17:45;3.47;;;2.58;;
75191;SDS011;63771;52.580;9.734;2022-11-15T13:25:21;2.80;;;2.60;;
75191;SDS011;63771;52.580;9.734;2022-11-15T13:27:49;3.17;;;2.88;;
75191;SDS011;63771;52.580;9.734;2022-11-15T13:30:20;4.55;;;3.58;;
75191;SDS011;63771;52.580;9.734;2022-11-15T13:32:48;2.60;;;2.50;;
75191;SDS011;63771;52.580;9.734;2022-11-15T13:35:18;2.60;;;2.40;;
75191;SDS011;63771;52.580;9.734;2022-11-15T13:37:46;2.95;;;2.55;;
75191;SDS011;63771;52.580;9.734;2022-11-15T13:40:17;2.90;;;2.28;;
75191;SDS011;63771;52.580;9.734;2022-11-15T13:42:48;3.10;;;2.80;;
75191;SDS011;63771;52.580;9.734;2022-11-15T13:45:15;2.53;;;2.33;;
75191;SDS011;63771;52.580;9.734;2022-11-15T13:47:42;2.83;;;2.63;;
75191;SDS011;63771;52.580;9.734;2022-11-15T13:50:11;2.42;;;2.22;;
75191;SDS011;63771;52.580;9.734;2022-11-15T13:52:37;2.53;;;2.33;;
75191;SDS011;63771;52.580;9.734;2022-11-15T13:55:15;2.55;;;2.35;;
75191;SDS011;63771;52.580;9.734;2022-11-15T14:00:30;4.03;;;3.25;;
75191;SDS011;63771;52.580;9.734;2022-11-15T14:03:12;4.40;;;3.53;;
75191;SDS011;63771;52.580;9.734;2022-11-15T14:05:40;6.80;;;3.75;;
75191;SDS011;63771;52.580;9.734;2022-11-15T14:08:20;3.15;;;2.80;;
75191;SDS011;63771;52.580;9.734;2022-11-15T14:10:48;3.97;;;2.78;;
75191;SDS011;63771;52.580;9.734;2022-11-15T14:13:31;4.50;;;2.53;;
75191;SDS011;63771;52.580;9.734;2022-11-15T14:18:41;4.75;;;2.85;;
75191;SDS011;63771;52.580;9.734;2022-11-15T14:21:11;3.45;;;3.17;;
75191;SDS011;63771;52.580;9.734;2022-11-15T14:23:37;3.75;;;2.72;;
75191;SDS011;63771;52.580;9.734;2022-11-15T14:26:02;6.28;;;3.45;;
75191;SDS011;63771;52.580;9.734;2022-11-15T14:28:29;3.22;;;3.00;;
75191;SDS011;63771;52.580;9.734;2022-11-15T14:30:58;5.32;;;2.67;;
75191;SDS011;63771;52.580;9.734;2022-11-15T14:33:29;4.53;;;2.95;;
75191;SDS011;63771;52.580;9.734;2022-11-15T14:35:55;3.10;;;2.90;;
75191;SDS011;63771;52.580;9.734;2022-11-15T14:38:22;2.67;;;2.47;;
75191;SDS011;63771;52.580;9.734;2022-11-15T14:40:49;4.28;;;2.80;;
75191;SDS011;63771;52.580;9.734;2022-11-15T14:43:14;3.00;;;2.60;;
75191;SDS011;63771;52.580;9.734;2022-11-15T14:45:40;2.95;;;2.70;;
75191;SDS011;63771;52.580;9.734;2022-11-15T14:48:06;3.05;;;2.70;;
75191;SDS011;63771;52.580;9.734;2022-11-15T14:50:31;4.63;;;2.83;;
75191;SDS011;63771;52.580;9.734;2022-11-15T14:52:58;3.17;;;2.83;;
75191;SDS011;63771;52.580;9.734;2022-11-15T14:55:24;2.45;;;2.17;;
75191;SDS011;63771;52.580;9.734;2022-11-15T14:57:53;3.78;;;3.30;;
75191;SDS011;63771;52.580;9.734;2022-11-15T15:00:19;5.32;;;3.05;;
75191;SDS011;63771;52.580;9.734;2022-11-15T15:02:46;5.63;;;3.90;;
75191;SDS011;63771;52.580;9.734;2022-11-15T15:05:16;3.03;;;2.83;;
75191;SDS011;63771;52.580;9.734;2022-11-15T15:07:54;3.60;;;3.05;;
75191;SDS011;63771;52.580;9.734;2022-11-15T15:10:20;3.30;;;3.00;;
75191;SDS011;63771;52.580;9.734;2022-11-15T15:12:46;4.95;;;4.32;;
75191;SDS011;63771;52.580;9.734;2022-11-15T15:15:12;7.15;;;5.43;;
75191;SDS011;63771;52.580;9.734;2022-11-15T15:17:54;7.32;;;5.07;;
75191;SDS011;63771;52.580;9.734;2022-11-15T15:20:19;4.67;;;3.90;;
75191;SDS011;63771;52.580;9.734;2022-11-15T15:22:45;4.67;;;3.67;;
75191;SDS011;63771;52.580;9.734;2022-11-15T15:25:17;3.93;;;3.63;;
75191;SDS011;63771;52.580;9.734;2022-11-15T15:27:45;4.57;;;3.92;;
75191;SDS011;63771;52.580;9.734;2022-11-15T15:30:11;4.63;;;4.23;;
75191;SDS011;63771;52.580;9.734;2022-11-15T15:32:36;4.97;;;4.45;;
75191;SDS011;63771;52.580;9.734;2022-11-15T15:35:02;4.97;;;4.47;;
75191;SDS011;63771;52.580;9.734;2022-11-15T15:37:27;4.53;;;3.88;;
75191;SDS011;63771;52.580;9.734;2022-11-15T15:39:59;4.78;;;4.28;;
75191;SDS011;63771;52.580;9.734;2022-11-15T15:42:25;4.20;;;3.37;;
75191;SDS011;63771;52.580;9.734;2022-11-15T15:44:50;8.37;;;5.37;;
75191;SDS011;63771;52.580;9.734;2022-11-15T15:47:17;5.10;;;4.43;;
75191;SDS011;63771;52.580;9.734;2022-11-15T15:49:44;7.13;;;4.97;;
75191;SDS011;63771;52.580;9.734;2022-11-15T15:52:10;11.43;;;4.70;;
75191;SDS011;63771;52.580;9.734;2022-11-15T15:54:36;5.82;;;4.22;;
75191;SDS011;63771;52.580;9.734;2022-11-15T15:57:02;3.97;;;3.58;;
75191;SDS011;63771;52.580;9.734;2022-11-15T15:59:28;3.85;;;3.50;;
75191;SDS011;63771;52.580;9.734;2022-11-15T16:01:53;4.38;;;3.60;;
75191;SDS011;63771;52.580;9.734;2022-11-15T16:04:19;4.20;;;3.60;;
75191;SDS011;63771;52.580;9.734;2022-11-15T16:06:44;3.13;;;2.70;;
75191;SDS011;63771;52.580;9.734;2022-11-15T16:09:16;3.15;;;2.92;;
75191;SDS011;63771;52.580;9.734;2022-11-15T16:11:43;4.72;;;3.45;;
75191;SDS011;63771;52.580;9.734;2022-11-15T16:14:10;4.22;;;3.63;;
75191;SDS011;63771;52.580;9.734;2022-11-15T16:16:36;5.82;;;3.05;;
75191;SDS011;63771;52.580;9.734;2022-11-15T16:19:02;4.53;;;3.25;;
75191;SDS011;63771;52.580;9.734;2022-11-15T16:21:28;4.03;;;3.03;;
75191;SDS011;63771;52.580;9.734;2022-11-15T16:23:53;4.57;;;3.63;;
75191;SDS011;63771;52.580;9.734;2022-11-15T16:26:23;3.70;;;3.42;;
75191;SDS011;63771;52.580;9.734;2022-11-15T16:28:51;3.67;;;3.40;;
75191;SDS011;63771;52.580;9.734;2022-11-15T16:31:17;4.03;;;3.45;;
75191;SDS011;63771;52.580;9.734;2022-11-15T16:33:44;4.03;;;3.65;;
75191;SDS011;63771;52.580;9.734;2022-11-15T16:36:21;4.53;;;3.83;;
75191;SDS011;63771;52.580;9.734;2022-11-15T16:38:50;3.85;;;3.50;;
75191;SDS011;63771;52.580;9.734;2022-11-15T16:41:16;4.15;;;3.75;;
75191;SDS011;63771;52.580;9.734;2022-11-15T16:43:43;6.25;;;4.55;;
75191;SDS011;63771;52.580;9.734;2022-11-15T16:48:43;12.98;;;7.07;;
75191;SDS011;63771;52.580;9.734;2022-11-15T16:51:08;6.63;;;5.40;;
75191;SDS011;63771;52.580;9.734;2022-11-15T16:53:34;5.90;;;4.20;;
75191;SDS011;63771;52.580;9.734;2022-11-15T16:56:00;5.20;;;4.80;;
75191;SDS011;63771;52.580;9.734;2022-11-15T16:58:25;9.17;;;4.50;;
75191;SDS011;63771;52.580;9.734;2022-11-15T17:00:53;6.07;;;4.53;;
75191;SDS011;63771;52.580;9.734;2022-11-15T17:03:20;4.55;;;4.07;;
75191;SDS011;63771;52.580;9.734;2022-11-15T17:05:46;6.53;;;5.28;;
75191;SDS011;63771;52.580;9.734;2022-11-15T17:08:11;4.20;;;3.80;;